Pulaski, Georgia
Current Conditions -  °F | °C
As of 12:55 PM on Saturday 25 Oct 2014 (Local Time) from KCWV Reporting Station
Clear Clear  
Wind Chill: 73°   Ceiling: Unl
Heat Index: 73°   Visibility: 10mi
Dew Point: 45°   Wind: 6mph
Humidity: 36%   Direction: 20°NNE
Pressure: 30.02"   Gusts: NA
Location:  32.39°N, 81.96°W
Report Text: KCWV 251655Z AUTO 02005KT 10SM CLR 23/07 A3002 RMK AO2
Loading
Personal Weather Stations






























Interactive Weather Map
Tropical Storm Tracking
New forecast layout! Learn more

10-Day Weather Forecast

Advertisements
Track Severe Weather on mobile